• Join FlightAware (Why Join?)
  • Login
  • US Flag 
12:17AM EDT


 

Airport Tracker/Info


-or-


 

Live Flight TrackerFlight Track Log ✈ UPS834 ✈ 10-May-2013 ✈ KSLC - KBOI

Flight Track Log - Related Links

Times and Time Zones

All times are in EDT time to prevent confusion due to time zone crossing. See the UPS834 flight status page for this flight to view local times or setup timezone preferences in your user account.

Time Position Orientation Groundspeed Altitude Reporting Facility
EDT Latitude Longitude Course Direction KTS MPH feet Rate Location/Type
08:45AM 40.7758 -111.9983 246° West 173 199 5,200  Level Salt Lake Center
08:46AM 40.7500 -112.0750 246° West 245 282 7,700 2,280 Climbing Salt Lake Center
08:47AM 40.7628 -112.1022 302° West 256 295 8,900 2,460 Climbing Salt Lake Center
08:48AM 40.8039 -112.1997 299° West 308 354 11,300 2,520 Climbing Salt Lake Center
08:49AM 40.8906 -112.2767 326° Northwest 373 429 14,000 2,940 Climbing Salt Lake Center
08:50AM 40.9833 -112.3567 327° Northwest 395 455 17,300 2,940 Climbing Salt Lake Center
08:51AM 41.0781 -112.4411 326° Northwest 408 470 20,000 2,640 Climbing Salt Lake Center
08:52AM 41.1761 -112.5289 326° Northwest 422 486 22,700 2,280 Climbing Salt Lake Center
08:53AM 41.2756 -112.6231 325° Northwest 440 506 24,700 1,980 Climbing Salt Lake Center
08:54AM 41.3644 -112.7447 314° West 458 527 26,800 2,220 Climbing Salt Lake Center
08:55AM 41.4506 -112.8731 312° West 463 533 29,200 1,560 Climbing Salt Lake Center
08:56AM 41.5333 -113.0033 310° West 460 529 30,000 360 Climbing Salt Lake Center
08:57AM 41.6175 -113.1339 311° West 463 533 30,000  Level Salt Lake Center
08:58AM 41.7044 -113.2631 312° West 466 536 30,000  Level Salt Lake Center
08:59AM 41.7875 -113.3953 310° West 465 535 30,000  Level Salt Lake Center
09:00AM 41.8714 -113.5236 311° West 460 529 30,000  Level Salt Lake Center
09:01AM 41.9544 -113.6539 311° West 460 529 30,000  Level Salt Lake Center
09:02AM 42.0375 -113.7842 311° West 461 531 30,000  Level Salt Lake Center
09:03AM 42.1203 -113.9150 310° West 460 529 30,000  Level Salt Lake Center
09:04AM 42.2036 -114.0453 311° West 461 531 30,000  Level Salt Lake Center
09:05AM 42.2858 -114.1769 310° West 461 531 30,000  Level Salt Lake Center
09:06AM 42.3844 -114.3389 310° West 459 528 30,000  Level Salt Lake Center
09:07AM 42.4667 -114.4706 310° West 457 526 30,000  Level Salt Lake Center
09:08AM 42.5492 -114.6003 311° West 455 524 30,000 -1,020 Level Salt Lake Center
09:09AM 42.6331 -114.7281 312° West 452 520 28,000 -2,820 Descending Salt Lake Center
09:10AM 42.7133 -114.8558 311° West 462 532 24,300 -3,180 Descending Salt Lake Center
09:11AM 42.7911 -114.9747 312° West 444 511 21,600 -2,460 Descending Salt Lake Center
09:12AM 42.8789 -115.1133 311° West 423 487 19,300 -1,920 Descending Salt Lake Center
09:13AM 42.9508 -115.2261 311° West 412 474 17,800 -1,440 Descending Salt Lake Center
09:14AM 43.0261 -115.3447 311° West 400 460 16,500 -1,380 Descending Salt Lake Center
09:15AM 43.1000 -115.4628 311° West 391 450 15,000 -1,440 Descending Salt Lake Center
09:16AM 43.1667 -115.5692 311° West 384 442 13,600 -1,020 Descending Salt Lake Center
09:17AM 43.2381 -115.6825 311° West 379 436 13,000 -1,440 Descending Salt Lake Center
09:18AM 43.3083 -115.7969 310° West 374 430 10,700 -1,680 Descending Salt Lake Center
09:19AM 43.3706 -115.8781 317° Northwest 311 358 9,700 -2,340 Descending Salt Lake Center
09:20AM 43.4272 -115.9503 317° Northwest 271 312 6,000 -2,040 Descending Salt Lake Center
09:21AM 43.4761 -116.0122 317° Northwest 223 257 5,600 -360 Descending Salt Lake Center
09:22AM 43.5100 -116.0683 310° West 200 230 5,300 -720 Descending Salt Lake Center
09:23AM 43.5319 -116.1347 295° West 186 214 4,200 -960 Descending Salt Lake Center
09:24AM 43.5481 -116.1817 295° West 148 170 3,400 -840 Descending Salt Lake Center
09:26AM 43.5500 -116.2167 270° West  Level FlightAware Approximate
09:33AM 43.5644 -116.2229 270° West  Level Estimated
09:34AM 43.5644 -116.2229 270° West  Level Estimated